Time;durP1;ratioP1;P1;durP2;ratioP2;P2;SDS_P1;SDS_P2;PMS_P1;PMS_P2;Temp;Humidity;BMP_temperature;BMP_pressure;BME280_temperature;BME280_humidity;BME280_pressure;Samples;Min_cycle;Max_cycle;Signal;HPM_P1;HPM_P2
2020/12/23 00:01:20;;;;;;;1.30;0.73;;;13.30;90.10;;;;;;4993736;28;20037;-67
2020/12/23 00:03:46;;;;;;;2.05;0.90;;;13.30;90.00;;;;;;4996442;28;20030;-65
2020/12/23 00:06:12;;;;;;;0.77;0.73;;;13.30;90.10;;;;;;4993864;28;20022;-67
2020/12/23 00:08:37;;;;;;;0.70;0.70;;;13.30;90.10;;;;;;4993415;28;20033;-67
2020/12/23 00:11:03;;;;;;;0.77;0.77;;;13.30;90.00;;;;;;4992542;28;20027;-67
2020/12/23 00:13:28;;;;;;;1.48;0.75;;;13.30;90.00;;;;;;4993155;28;20283;-67
2020/12/23 00:15:54;;;;;;;1.73;0.60;;;13.30;90.00;;;;;;4992874;28;20026;-66
2020/12/23 00:18:20;;;;;;;0.80;0.70;;;13.30;90.00;;;;;;4991946;28;20395;-67
2020/12/23 00:20:45;;;;;;;2.28;0.80;;;13.30;89.80;;;;;;4975865;28;20031;-67
2020/12/23 00:23:11;;;;;;;0.75;0.75;;;13.30;89.80;;;;;;4996220;28;20117;-67
2020/12/23 00:25:36;;;;;;;0.80;0.80;;;13.30;89.80;;;;;;4992313;28;20058;-66
2020/12/23 00:28:02;;;;;;;2.00;0.60;;;13.30;89.80;;;;;;4991015;28;20028;-67
2020/12/23 00:30:27;;;;;;;0.80;0.80;;;13.30;89.60;;;;;;4990356;28;20479;-65
2020/12/23 00:32:53;;;;;;;1.95;0.70;;;13.30;89.50;;;;;;4973447;28;20030;-66
2020/12/23 00:35:18;;;;;;;1.83;0.60;;;13.30;89.50;;;;;;4992466;28;20056;-66
2020/12/23 00:37:44;;;;;;;0.60;0.60;;;13.30;89.60;;;;;;4971533;28;20026;-67
2020/12/23 00:40:10;;;;;;;1.15;0.75;;;13.30;89.60;;;;;;4975448;28;20080;-67
2020/12/23 00:42:36;;;;;;;0.60;0.60;;;13.30;90.00;;;;;;4993634;28;20135;-67
2020/12/23 00:45:02;;;;;;;0.90;0.68;;;13.30;89.30;;;;;;4975906;28;20034;-67
2020/12/23 00:47:28;;;;;;;2.72;1.00;;;13.30;89.30;;;;;;4976170;28;20451;-67
2020/12/23 00:49:54;;;;;;;1.05;0.70;;;13.30;89.30;;;;;;4989637;28;20105;-67
2020/12/23 00:52:19;;;;;;;0.82;0.80;;;13.30;89.80;;;;;;4989844;28;20030;-66
2020/12/23 00:54:45;;;;;;;0.70;0.70;;;13.30;89.20;;;;;;4971485;28;20085;-67
2020/12/23 00:57:10;;;;;;;0.93;0.55;;;13.30;89.20;;;;;;4991078;28;20077;-67
2020/12/23 00:59:36;;;;;;;0.75;0.75;;;13.30;89.00;;;;;;4989878;28;20597;-67
2020/12/23 01:02:03;;;;;;;1.58;0.70;;;13.30;89.00;;;;;;4972386;28;20506;-66
2020/12/23 01:04:29;;;;;;;3.95;0.80;;;13.30;88.90;;;;;;4971368;28;20394;-66
2020/12/23 01:06:56;;;;;;;0.75;0.63;;;13.30;88.90;;;;;;4992041;28;20113;-67
2020/12/23 01:09:21;;;;;;;0.63;0.63;;;13.30;88.80;;;;;;4991853;28;20049;-67
2020/12/23 01:11:48;;;;;;;0.95;0.70;;;13.30;88.90;;;;;;4973835;28;20628;-67
2020/12/23 01:14:15;;;;;;;0.70;0.70;;;13.30;88.90;;;;;;4973766;28;20022;-66
2020/12/23 01:16:41;;;;;;;0.65;0.65;;;13.30;88.70;;;;;;4992047;28;20446;-67
2020/12/23 01:19:06;;;;;;;0.85;0.68;;;13.30;88.60;;;;;;4979404;28;20026;-66
2020/12/23 01:21:32;;;;;;;0.52;0.50;;;13.30;88.60;;;;;;4991066;28;20029;-67
2020/12/23 01:23:57;;;;;;;0.65;0.65;;;13.30;88.60;;;;;;4990966;28;20109;-66
2020/12/23 01:26:23;;;;;;;0.60;0.60;;;13.30;88.50;;;;;;4992017;28;20037;-67
2020/12/23 01:28:49;;;;;;;0.82;0.77;;;13.30;88.50;;;;;;4991431;28;20490;-66
2020/12/23 01:31:14;;;;;;;0.80;0.80;;;13.30;88.40;;;;;;4974175;28;20054;-66
2020/12/23 01:33:40;;;;;;;3.25;0.70;;;13.30;88.30;;;;;;4991164;28;20088;-67
2020/12/23 01:36:05;;;;;;;1.38;0.80;;;13.30;88.20;;;;;;4991002;28;20038;-67
2020/12/23 01:38:31;;;;;;;3.50;0.68;;;13.30;88.20;;;;;;4990797;28;20134;-67
2020/12/23 01:41:01;;;;;;;2.13;0.73;;;13.30;88.10;;;;;;4990039;28;20065;-65
2020/12/23 01:43:27;;;;;;;1.20;0.80;;;13.30;88.10;;;;;;4991194;28;20029;-66
2020/12/23 01:45:53;;;;;;;1.13;0.77;;;13.30;88.10;;;;;;4991381;28;20461;-67
2020/12/23 01:48:29;;;;;;;0.65;0.65;;;13.30;87.80;;;;;;4973077;28;20066;-66
2020/12/23 01:50:58;;;;;;;1.55;0.68;;;13.30;87.70;;;;;;4991823;28;20061;-66
2020/12/23 01:53:25;;;;;;;0.55;0.55;;;13.30;87.80;;;;;;4991019;28;20033;-67
2020/12/23 01:55:51;;;;;;;0.82;0.80;;;13.30;87.80;;;;;;4991584;28;20378;-67
2020/12/23 01:58:17;;;;;;;0.80;0.65;;;13.30;87.80;;;;;;4994158;28;20033;-67
2020/12/23 02:00:43;;;;;;;0.82;0.60;;;13.30;87.60;;;;;;4990710;28;20109;-67
2020/12/23 02:03:10;;;;;;;0.85;0.60;;;13.30;87.70;;;;;;4973974;28;20026;-67
2020/12/23 02:05:40;;;;;;;0.60;0.60;;;13.30;87.70;;;;;;4990649;28;20378;-66
2020/12/23 02:08:06;;;;;;;1.90;0.50;;;13.30;87.70;;;;;;4991089;28;20137;-66
2020/12/23 02:10:32;;;;;;;1.60;0.60;;;13.30;87.80;;;;;;4990812;28;20125;-67
2020/12/23 02:13:01;;;;;;;1.17;0.93;;;13.30;87.80;;;;;;4990511;28;20027;-66
2020/12/23 02:15:27;;;;;;;0.65;0.50;;;13.30;87.70;;;;;;4987954;28;20019;-67
2020/12/23 02:17:53;;;;;;;2.05;1.00;;;13.30;87.60;;;;;;4990626;28;20023;-66
2020/12/23 02:20:19;;;;;;;0.63;0.63;;;13.30;87.60;;;;;;4988233;28;20445;-66
2020/12/23 02:22:46;;;;;;;0.55;0.55;;;13.30;87.60;;;;;;4989652;28;20027;-67
2020/12/23 02:25:13;;;;;;;1.73;0.85;;;13.30;87.60;;;;;;4990461;28;20184;-66
2020/12/23 02:27:40;;;;;;;1.27;0.63;;;13.30;87.60;;;;;;4997091;28;21651;-67
2020/12/23 02:30:09;;;;;;;0.80;0.80;;;13.30;87.60;;;;;;4990795;28;20030;-67
2020/12/23 02:32:35;;;;;;;2.17;0.70;;;13.30;87.60;;;;;;4990471;28;20036;-66
2020/12/23 02:35:01;;;;;;;1.10;0.70;;;13.30;87.60;;;;;;4989850;28;20387;-67
2020/12/23 02:37:26;;;;;;;0.60;0.60;;;13.30;87.40;;;;;;4990933;28;20034;-65
2020/12/23 02:39:54;;;;;;;0.63;0.63;;;13.30;87.40;;;;;;4988401;28;20029;-67
2020/12/23 02:42:21;;;;;;;1.58;0.60;;;13.30;87.40;;;;;;4990829;28;20035;-66
2020/12/23 02:44:47;;;;;;;0.60;0.60;;;13.30;87.40;;;;;;4989567;28;20038;-66
2020/12/23 02:47:15;;;;;;;0.60;0.60;;;13.30;87.40;;;;;;4988987;28;20026;-67
2020/12/23 02:49:41;;;;;;;0.60;0.60;;;13.30;87.30;;;;;;4992826;28;20034;-67
2020/12/23 02:52:08;;;;;;;0.60;0.60;;;13.30;87.30;;;;;;4991148;28;20121;-66
2020/12/23 02:54:34;;;;;;;1.42;0.70;;;13.30;87.40;;;;;;4972317;28;20026;-66
2020/12/23 02:57:00;;;;;;;0.75;0.75;;;13.20;88.00;;;;;;4973193;28;20022;-67
2020/12/23 02:59:25;;;;;;;1.00;0.90;;;13.20;87.60;;;;;;4989645;28;20049;-66
2020/12/23 03:01:51;;;;;;;1.88;0.60;;;13.10;87.80;;;;;;4990272;28;20142;-66
2020/12/23 03:04:17;;;;;;;0.80;0.80;;;13.10;87.90;;;;;;4990169;28;20030;-67
2020/12/23 03:06:42;;;;;;;0.90;0.60;;;13.10;88.00;;;;;;4990943;28;20034;-67
2020/12/23 03:09:10;;;;;;;2.22;0.80;;;13.10;88.30;;;;;;4990517;28;20049;-67
2020/12/23 03:11:36;;;;;;;1.63;0.75;;;13.00;88.50;;;;;;4990556;28;20108;-66
2020/12/23 03:14:02;;;;;;;2.22;0.60;;;13.00;88.70;;;;;;4981992;28;20058;-67
2020/12/23 03:16:28;;;;;;;0.63;0.63;;;13.00;88.70;;;;;;4990483;28;20034;-66
2020/12/23 03:18:54;;;;;;;1.48;0.70;;;13.00;88.70;;;;;;4972513;28;20022;-66
2020/12/23 03:21:20;;;;;;;3.00;0.63;;;13.00;88.80;;;;;;4973068;28;20026;-65
2020/12/23 03:23:45;;;;;;;0.90;0.77;;;13.00;88.70;;;;;;4990293;28;20475;-66
2020/12/23 03:26:11;;;;;;;1.48;0.80;;;13.00;88.80;;;;;;4989138;28;20086;-66
2020/12/23 03:28:37;;;;;;;0.82;0.82;;;13.00;88.80;;;;;;4990204;28;20026;-66
2020/12/23 03:31:03;;;;;;;3.03;0.70;;;13.00;89.00;;;;;;4990389;28;20478;-66
2020/12/23 03:33:29;;;;;;;0.70;0.70;;;13.00;89.10;;;;;;4989929;28;20061;-66
2020/12/23 03:35:55;;;;;;;0.77;0.70;;;12.90;89.30;;;;;;4989061;28;20058;-66
2020/12/23 03:38:21;;;;;;;1.02;0.60;;;12.90;89.40;;;;;;4990153;28;20026;-66
2020/12/23 03:40:47;;;;;;;2.42;0.60;;;12.90;89.40;;;;;;4982908;28;20105;-66
2020/12/23 03:43:12;;;;;;;0.70;0.70;;;12.90;89.40;;;;;;4989800;28;20061;-65
2020/12/23 03:48:06;;;;;;;2.72;0.70;;;12.90;89.30;;;;;;5020946;28;20049;-63
2020/12/23 03:50:32;;;;;;;0.65;0.65;;;13.00;89.40;;;;;;5016831;28;20081;-63
2020/12/23 03:52:58;;;;;;;0.60;0.60;;;13.00;89.40;;;;;;5018307;28;20030;-64
2020/12/23 03:55:23;;;;;;;1.30;0.70;;;12.90;89.40;;;;;;5001948;28;20037;-63
2020/12/23 03:57:49;;;;;;;2.60;0.80;;;12.90;89.50;;;;;;5024355;28;20097;-64
2020/12/23 04:00:14;;;;;;;1.23;0.60;;;12.80;89.70;;;;;;5022117;28;20431;-64
2020/12/23 04:02:40;;;;;;;0.80;0.80;;;12.80;90.00;;;;;;5020855;28;20516;-63
2020/12/23 04:05:07;;;;;;;0.80;0.80;;;12.70;90.10;;;;;;5027638;28;20028;-63
2020/12/23 04:07:32;;;;;;;0.73;0.73;;;12.70;90.30;;;;;;5020455;28;20057;-63
2020/12/23 04:09:58;;;;;;;1.60;0.80;;;12.70;90.30;;;;;;5029722;28;20053;-64
2020/12/23 04:12:24;;;;;;;1.38;0.80;;;12.70;90.40;;;;;;5023828;28;20033;-64
2020/12/23 04:14:49;;;;;;;2.45;0.80;;;12.70;90.40;;;;;;5025900;28;20057;-64
2020/12/23 04:17:15;;;;;;;0.80;0.80;;;12.70;90.40;;;;;;5026482;28;20472;-63
2020/12/23 04:19:41;;;;;;;0.60;0.60;;;12.70;90.50;;;;;;5027242;28;20025;-63
2020/12/23 04:22:06;;;;;;;0.98;0.70;;;12.70;90.50;;;;;;5031827;28;20028;-64
2020/12/23 04:24:32;;;;;;;0.77;0.77;;;12.70;90.40;;;;;;5032156;28;20044;-64
2020/12/23 04:26:58;;;;;;;0.82;0.68;;;12.70;90.40;;;;;;5030394;28;20037;-65
2020/12/23 04:29:24;;;;;;;0.70;0.70;;;12.70;90.50;;;;;;5016865;28;20111;-64
2020/12/23 04:31:49;;;;;;;1.45;0.80;;;12.80;90.60;;;;;;4996413;28;20113;-64
2020/12/23 04:34:15;;;;;;;0.75;0.60;;;12.80;90.60;;;;;;5042216;28;20028;-64
2020/12/23 04:36:40;;;;;;;2.00;0.65;;;12.70;90.50;;;;;;5019014;28;20037;-64
2020/12/23 04:39:06;;;;;;;1.27;0.50;;;12.70;90.50;;;;;;5022228;28;20025;-64
2020/12/23 04:41:35;;;;;;;0.85;0.50;;;12.70;90.60;;;;;;5013500;28;20077;-64
2020/12/23 04:44:05;;;;;;;0.85;0.52;;;12.70;90.60;;;;;;5016356;28;20057;-64
2020/12/23 04:46:36;;;;;;;1.35;0.55;;;12.70;90.70;;;;;;5018388;28;20409;-64
2020/12/23 04:49:03;;;;;;;0.60;0.60;;;12.70;90.70;;;;;;5021726;28;20063;-64
2020/12/23 04:51:31;;;;;;;0.65;0.65;;;12.70;90.70;;;;;;5015481;28;20037;-64
2020/12/23 04:53:58;;;;;;;0.95;0.68;;;12.70;90.70;;;;;;5018975;28;20028;-64
2020/12/23 04:56:27;;;;;;;1.05;0.68;;;12.70;90.70;;;;;;5040087;28;20084;-63
2020/12/23 04:58:53;;;;;;;0.98;0.70;;;12.70;90.70;;;;;;4996515;28;20061;-64
2020/12/23 05:01:18;;;;;;;1.15;0.50;;;12.70;90.70;;;;;;5035747;28;20035;-63
2020/12/23 05:03:45;;;;;;;1.65;0.63;;;12.60;90.80;;;;;;5034872;28;20025;-63
2020/12/23 05:06:11;;;;;;;3.25;0.82;;;12.60;90.90;;;;;;5028453;28;20029;-63
2020/12/23 05:08:36;;;;;;;2.15;0.70;;;12.60;91.00;;;;;;5029263;28;20033;-64
2020/12/23 05:11:07;;;;;;;0.70;0.70;;;12.50;91.00;;;;;;5024952;28;20090;-63
2020/12/23 05:13:34;;;;;;;1.02;0.98;;;12.50;91.20;;;;;;5014036;28;20029;-63
2020/12/23 05:16:00;;;;;;;3.92;0.80;;;12.40;91.20;;;;;;5028708;28;20026;-64
2020/12/23 05:18:34;;;;;;;1.45;0.80;;;12.40;91.30;;;;;;5031008;28;20066;-64
2020/12/23 05:21:01;;;;;;;0.80;0.80;;;12.40;91.40;;;;;;5029766;28;20025;-64
2020/12/23 05:23:31;;;;;;;1.13;0.80;;;12.40;91.40;;;;;;5030255;28;20025;-64
2020/12/23 05:26:07;;;;;;;1.63;0.80;;;12.40;91.50;;;;;;5019649;28;20026;-64
2020/12/23 05:28:34;;;;;;;0.95;0.95;;;12.40;91.50;;;;;;5028194;28;20479;-64
2020/12/23 05:31:03;;;;;;;0.90;0.90;;;12.40;91.50;;;;;;5028024;28;20548;-65
2020/12/23 05:33:33;;;;;;;2.92;0.80;;;12.40;91.50;;;;;;5023463;28;20030;-62
2020/12/23 05:36:01;;;;;;;1.08;0.70;;;12.50;91.50;;;;;;5022294;28;20013;-64
2020/12/23 05:38:29;;;;;;;2.13;1.92;;;12.50;91.50;;;;;;5031059;28;20469;-63
2020/12/23 05:40:54;;;;;;;2.20;2.00;;;12.50;91.50;;;;;;5027923;28;20032;-64
2020/12/23 05:43:20;;;;;;;2.97;2.72;;;12.50;91.50;;;;;;5027684;28;20034;-64
2020/12/23 05:45:46;;;;;;;4.45;3.35;;;12.60;91.50;;;;;;5024273;28;20398;-63
2020/12/23 05:48:14;;;;;;;1.25;1.17;;;12.50;91.50;;;;;;5018843;28;20025;-64
2020/12/23 05:50:40;;;;;;;0.70;0.70;;;12.60;91.50;;;;;;5025593;28;20048;-63
2020/12/23 05:53:15;;;;;;;0.55;0.55;;;12.60;91.50;;;;;;5026474;28;20068;-63
2020/12/23 05:55:49;;;;;;;0.93;0.73;;;12.60;91.50;;;;;;5019649;28;20112;-64
2020/12/23 05:58:30;;;;;;;2.03;0.70;;;12.70;91.40;;;;;;5023617;28;20033;-64
2020/12/23 06:00:58;;;;;;;0.70;0.70;;;12.70;91.40;;;;;;5021216;28;20018;-64
2020/12/23 06:03:58;;;;;;;0.70;0.70;;;12.70;91.30;;;;;;5015565;28;20061;-64
2020/12/23 06:06:29;;;;;;;1.20;1.10;;;12.70;91.30;;;;;;5018478;28;20034;-63
2020/12/23 06:08:55;;;;;;;1.30;1.20;;;12.80;91.30;;;;;;5020730;28;20029;-63
2020/12/23 06:11:32;;;;;;;13.25;7.65;;;12.80;91.20;;;;;;5023999;28;20407;-64
2020/12/23 06:14:20;;;;;;;2.47;1.95;;;12.80;91.20;;;;;;5029259;28;20036;-64
2020/12/23 06:17:03;;;;;;;0.80;0.80;;;12.80;91.20;;;;;;5026074;28;20036;-63
2020/12/23 06:19:29;;;;;;;6.72;1.13;;;12.80;91.10;;;;;;5020581;28;20102;-65
2020/12/23 06:21:57;;;;;;;1.20;1.20;;;12.80;91.10;;;;;;5027245;28;20035;-66
2020/12/23 06:24:24;;;;;;;1.40;1.30;;;12.80;91.10;;;;;;5011827;28;20040;-65
2020/12/23 06:26:54;;;;;;;1.13;1.02;;;12.80;91.10;;;;;;5016766;28;20022;-65
2020/12/23 06:29:22;;;;;;;1.23;1.10;;;12.80;91.10;;;;;;5011798;28;20034;-65
2020/12/23 06:31:53;;;;;;;2.15;1.00;;;12.80;91.10;;;;;;5020481;28;20061;-65
2020/12/23 06:34:33;;;;;;;1.10;1.10;;;12.80;91.10;;;;;;5030057;28;20458;-65
2020/12/23 06:37:00;;;;;;;1.88;1.20;;;12.80;91.10;;;;;;5013363;28;20030;-64
2020/12/23 06:39:37;;;;;;;1.52;1.10;;;12.80;91.10;;;;;;5019172;28;20758;-64
2020/12/23 06:42:03;;;;;;;1.10;1.10;;;12.80;91.10;;;;;;5020911;28;20022;-65
2020/12/23 06:44:44;;;;;;;2.78;1.10;;;12.80;91.10;;;;;;5015499;28;20038;-65
2020/12/23 06:47:15;;;;;;;2.80;1.23;;;12.90;91.10;;;;;;5022434;28;20063;-65
2020/12/23 06:49:45;;;;;;;2.97;2.27;;;12.90;91.10;;;;;;5021888;28;20056;-64
2020/12/23 06:52:26;;;;;;;2.10;1.90;;;12.90;91.00;;;;;;5026819;28;20095;-65
2020/12/23 06:55:05;;;;;;;1.98;1.27;;;13.00;91.00;;;;;;5032085;28;20025;-65
2020/12/23 06:57:37;;;;;;;1.83;1.27;;;13.00;91.00;;;;;;5021522;28;20029;-65
2020/12/23 07:00:07;;;;;;;1.42;1.25;;;13.00;90.90;;;;;;5029491;28;20029;-65
2020/12/23 07:02:35;;;;;;;1.52;1.23;;;13.00;91.10;;;;;;5028996;28;20017;-64
2020/12/23 07:05:00;;;;;;;1.27;1.15;;;13.10;90.90;;;;;;5016748;28;20092;-65
2020/12/23 07:07:33;;;;;;;2.83;1.40;;;13.10;90.80;;;;;;5017005;28;20029;-65
2020/12/23 07:10:26;;;;;;;1.88;1.27;;;13.00;90.70;;;;;;5022163;28;20021;-64
2020/12/23 07:12:53;;;;;;;2.85;1.48;;;13.00;90.90;;;;;;5006091;28;20045;-65
2020/12/23 07:15:30;;;;;;;5.05;1.60;;;13.00;90.90;;;;;;5028204;28;20037;-66
2020/12/23 07:18:06;;;;;;;3.40;1.80;;;13.00;90.90;;;;;;5016547;28;20028;-65
2020/12/23 07:20:38;;;;;;;1.70;1.60;;;12.90;90.90;;;;;;5041421;28;20481;-65
2020/12/23 07:23:06;;;;;;;2.10;1.90;;;12.90;90.80;;;;;;5026012;28;20030;-65
2020/12/23 07:25:38;;;;;;;2.15;1.83;;;12.90;90.90;;;;;;5029621;28;20060;-66
2020/12/23 07:28:06;;;;;;;2.83;1.87;;;12.90;90.80;;;;;;5011643;28;20040;-65
2020/12/23 07:30:38;;;;;;;1.98;1.88;;;12.90;90.90;;;;;;5033497;28;20393;-66
2020/12/23 07:33:10;;;;;;;2.83;1.75;;;12.90;90.90;;;;;;5037905;28;20076;-65
2020/12/23 07:35:38;;;;;;;2.03;1.80;;;12.90;90.80;;;;;;5019674;28;20029;-65
2020/12/23 07:38:06;;;;;;;2.20;1.98;;;12.90;90.80;;;;;;5001717;28;20041;-64
2020/12/23 07:40:33;;;;;;;3.17;1.60;;;12.90;90.90;;;;;;5036635;28;20021;-65
2020/12/23 07:42:59;;;;;;;1.70;1.60;;;12.80;90.80;;;;;;5027719;28;20037;-65
2020/12/23 07:45:26;;;;;;;2.75;1.52;;;12.90;90.80;;;;;;5032824;28;20030;-65
2020/12/23 07:48:00;;;;;;;4.45;1.80;;;12.80;90.90;;;;;;5023136;28;20029;-64
2020/12/23 07:50:28;;;;;;;3.40;2.03;;;12.80;90.80;;;;;;5019782;28;20076;-65
2020/12/23 07:52:54;;;;;;;2.75;1.75;;;12.70;90.90;;;;;;5020103;28;20377;-65
2020/12/23 07:55:22;;;;;;;1.65;1.52;;;12.70;90.90;;;;;;5041516;28;20021;-64
2020/12/23 07:57:52;;;;;;;1.77;1.63;;;12.70;90.90;;;;;;5028463;28;20113;-66
2020/12/23 08:00:18;;;;;;;4.95;3.08;;;12.70;90.90;;;;;;5028163;28;20433;-66
2020/12/23 08:02:44;;;;;;;5.47;3.03;;;12.70;90.90;;;;;;5031520;28;20033;-64
2020/12/23 08:05:12;;;;;;;4.72;4.20;;;12.70;90.90;;;;;;5022627;28;20098;-64
2020/12/23 08:07:46;;;;;;;5.60;2.30;;;12.80;90.90;;;;;;5026197;28;20057;-65
2020/12/23 08:10:19;;;;;;;5.43;3.38;;;12.80;90.90;;;;;;5029497;28;20456;-65
2020/12/23 08:12:59;;;;;;;4.88;3.58;;;12.80;90.80;;;;;;5030985;28;20087;-65
2020/12/23 08:15:25;;;;;;;4.72;3.97;;;12.80;90.80;;;;;;5013006;28;20368;-64
2020/12/23 08:18:11;;;;;;;7.50;4.40;;;12.80;90.70;;;;;;5004948;28;20034;-65
2020/12/23 08:20:37;;;;;;;3.97;3.50;;;12.80;90.70;;;;;;5035691;28;20040;-65
2020/12/23 08:23:03;;;;;;;4.68;4.18;;;12.80;90.70;;;;;;5025177;28;20071;-65
2020/12/23 08:25:30;;;;;;;9.15;7.55;;;12.70;90.70;;;;;;5027116;28;20041;-64
2020/12/23 08:27:58;;;;;;;4.40;4.00;;;12.70;90.90;;;;;;5006889;28;20030;-65
2020/12/23 08:30:26;;;;;;;3.53;3.13;;;12.70;90.80;;;;;;5019987;28;20037;-65
2020/12/23 08:33:02;;;;;;;3.85;3.50;;;12.70;90.70;;;;;;5013687;28;20478;-65
2020/12/23 08:35:30;;;;;;;4.00;3.60;;;12.70;90.80;;;;;;5001415;28;20029;-65
2020/12/23 08:37:56;;;;;;;4.47;4.05;;;12.70;90.80;;;;;;5027998;28;20436;-65
2020/12/23 08:40:22;;;;;;;5.32;3.40;;;12.70;90.80;;;;;;5020554;28;20032;-66
2020/12/23 08:42:56;;;;;;;5.65;4.78;;;12.70;90.80;;;;;;4998299;28;20026;-65
2020/12/23 08:45:31;;;;;;;4.28;3.75;;;12.70;90.80;;;;;;5039559;28;20104;-65
2020/12/23 08:47:58;;;;;;;5.60;4.53;;;12.70;90.80;;;;;;5025151;28;20521;-65
2020/12/23 08:50:26;;;;;;;7.80;5.40;;;12.70;90.70;;;;;;5033037;28;20041;-64
2020/12/23 08:52:53;;;;;;;8.35;4.90;;;12.80;90.70;;;;;;5027383;28;20439;-65
2020/12/23 08:55:23;;;;;;;5.07;4.30;;;12.70;90.60;;;;;;5021622;28;20084;-66
2020/12/23 08:58:08;;;;;;;3.83;3.50;;;12.80;90.70;;;;;;5032472;28;20025;-68
2020/12/23 09:00:34;;;;;;;4.22;3.05;;;12.80;90.60;;;;;;5029320;28;20017;-66
2020/12/23 09:03:01;;;;;;;2.70;2.50;;;12.80;90.50;;;;;;5013738;28;20102;-66
2020/12/23 09:05:28;;;;;;;2.60;2.40;;;12.80;90.50;;;;;;5017847;28;20030;-65
2020/12/23 09:08:07;;;;;;;5.40;3.47;;;12.80;90.50;;;;;;5027168;28;20060;-66
2020/12/23 09:10:35;;;;;;;5.70;4.00;;;12.90;90.50;;;;;;5036365;28;20074;-66
2020/12/23 09:13:09;;;;;;;5.65;3.65;;;12.90;90.50;;;;;;5026794;28;20035;-65
2020/12/23 09:15:35;;;;;;;9.80;5.13;;;12.90;90.50;;;;;;5025483;28;20026;-65
2020/12/23 09:18:19;;;;;;;5.30;3.80;;;12.90;90.40;;;;;;5023087;28;20025;-65
2020/12/23 09:20:45;;;;;;;4.53;3.13;;;12.90;90.40;;;;;;4994782;28;20030;-66
2020/12/23 09:23:18;;;;;;;4.28;3.10;;;13.00;90.40;;;;;;5007563;28;20029;-64
2020/12/23 09:25:44;;;;;;;4.15;3.70;;;13.00;90.40;;;;;;5029140;28;20105;-65
2020/12/23 09:28:13;;;;;;;6.40;4.00;;;13.00;90.30;;;;;;4993765;28;20117;-65
2020/12/23 09:30:58;;;;;;;4.25;2.60;;;13.00;90.30;;;;;;5016366;28;20482;-67
2020/12/23 09:33:24;;;;;;;4.95;2.83;;;13.10;90.30;;;;;;5020964;28;20505;-67
2020/12/23 09:36:02;;;;;;;5.78;3.15;;;13.10;90.20;;;;;;5010939;28;20046;-66
2020/12/23 09:38:28;;;;;;;3.42;2.65;;;13.10;90.20;;;;;;5016637;28;20804;-65
2020/12/23 09:40:56;;;;;;;3.30;3.00;;;13.10;90.20;;;;;;5026393;28;20017;-65
2020/12/23 09:43:27;;;;;;;2.92;2.60;;;13.10;90.10;;;;;;5016561;28;20026;-65
2020/12/23 09:45:53;;;;;;;2.40;2.20;;;13.10;90.10;;;;;;5043578;22;20501;-72
2020/12/23 09:48:21;;;;;;;2.00;1.48;;;13.20;90.20;;;;;;5023640;28;20155;-72
2020/12/23 09:50:47;;;;;;;2.78;1.92;;;13.20;90.10;;;;;;5020385;28;20359;-71
2020/12/23 09:53:13;;;;;;;3.42;2.70;;;13.20;90.00;;;;;;5024262;28;20068;-71
2020/12/23 09:55:43;;;;;;;2.70;1.60;;;13.30;90.00;;;;;;5029889;28;20033;-72
2020/12/23 09:58:09;;;;;;;1.98;1.77;;;13.30;90.00;;;;;;5003666;28;20018;-71
2020/12/23 10:00:34;;;;;;;3.03;2.28;;;13.30;90.00;;;;;;5025058;28;20057;-72
2020/12/23 10:03:00;;;;;;;1.50;1.40;;;13.40;90.00;;;;;;5027229;28;20500;-72
2020/12/23 10:05:26;;;;;;;2.03;1.27;;;13.40;89.90;;;;;;5029928;28;20478;-70
2020/12/23 10:07:52;;;;;;;3.08;1.30;;;13.40;89.70;;;;;;5018424;28;20104;-70
2020/12/23 10:10:18;;;;;;;1.13;1.02;;;13.50;89.60;;;;;;5024104;28;20061;-72
2020/12/23 10:12:44;;;;;;;1.27;1.17;;;13.50;89.60;;;;;;5024226;28;20037;-71
2020/12/23 10:15:09;;;;;;;2.13;1.33;;;13.50;89.30;;;;;;5034861;28;20021;-74
2020/12/23 10:17:35;;;;;;;1.52;1.10;;;13.50;89.10;;;;;;5000165;28;20410;-74
2020/12/23 10:20:02;;;;;;;1.50;1.10;;;13.60;89.10;;;;;;5030611;28;20025;-74
2020/12/23 10:22:28;;;;;;;3.70;1.10;;;13.60;89.20;;;;;;5023478;28;20033;-73
2020/12/23 10:24:54;;;;;;;1.75;0.90;;;13.60;89.20;;;;;;5025738;28;20034;-72
2020/12/23 10:27:19;;;;;;;4.10;1.30;;;13.70;89.10;;;;;;5022100;28;20032;-72
2020/12/23 10:29:45;;;;;;;2.83;1.10;;;13.70;89.10;;;;;;5020882;28;20026;-73
2020/12/23 10:32:10;;;;;;;1.20;1.10;;;13.70;89.00;;;;;;5030929;28;20033;-72
2020/12/23 10:34:36;;;;;;;1.27;1.17;;;13.70;89.00;;;;;;5020203;28;20117;-72
2020/12/23 10:37:02;;;;;;;1.50;1.40;;;13.70;89.00;;;;;;5025836;28;20034;-72
2020/12/23 10:39:28;;;;;;;2.92;2.42;;;13.70;88.90;;;;;;5024926;28;20026;-71
2020/12/23 10:41:54;;;;;;;12.90;6.50;;;13.70;88.70;;;;;;5013295;28;20027;-72
2020/12/23 10:44:22;;;;;;;9.85;5.50;;;13.80;88.70;;;;;;5002678;28;20179;-72
2020/12/23 10:46:58;;;;;;;5.72;3.05;;;13.80;88.80;;;;;;5029235;28;20072;-71
2020/12/23 10:49:24;;;;;;;3.70;2.58;;;13.80;88.70;;;;;;5020737;28;20417;-71
2020/12/23 10:51:56;;;;;;;3.65;2.55;;;13.90;88.40;;;;;;5013640;28;20057;-71
2020/12/23 10:54:23;;;;;;;2.50;2.05;;;13.90;88.40;;;;;;5026075;28;20366;-71
2020/12/23 10:56:49;;;;;;;3.17;2.00;;;13.90;88.30;;;;;;5019986;28;20096;-69
2020/12/23 10:59:14;;;;;;;2.30;1.85;;;13.90;88.20;;;;;;5010598;28;20030;-69
2020/12/23 11:01:40;;;;;;;2.30;1.90;;;13.90;88.20;;;;;;5015877;28;20026;-70
2020/12/23 11:04:06;;;;;;;3.05;2.05;;;14.00;88.30;;;;;;5015077;28;20539;-71
2020/12/23 11:06:32;;;;;;;3.25;2.65;;;13.90;88.10;;;;;;5020378;28;20088;-71
2020/12/23 11:08:58;;;;;;;2.70;1.90;;;14.00;88.10;;;;;;5021944;28;20100;-69
2020/12/23 11:11:23;;;;;;;3.55;2.03;;;14.00;88.00;;;;;;5024229;28;20022;-70
2020/12/23 11:13:49;;;;;;;2.97;2.10;;;14.00;87.90;;;;;;5013762;28;20109;-73
2020/12/23 11:16:16;;;;;;;3.15;1.80;;;14.00;87.70;;;;;;5009314;28;20044;-73
2020/12/23 11:18:42;;;;;;;2.22;1.90;;;14.00;87.70;;;;;;5022164;28;20033;-72
2020/12/23 11:21:09;;;;;;;2.92;2.00;;;14.00;87.70;;;;;;5018300;28;20030;-72
2020/12/23 11:23:35;;;;;;;3.95;2.35;;;14.00;87.80;;;;;;5010883;28;20030;-73
2020/12/23 11:26:01;;;;;;;3.47;1.83;;;14.00;87.70;;;;;;5032004;28;20028;-72
2020/12/23 11:28:29;;;;;;;4.95;1.92;;;14.10;87.60;;;;;;5011201;28;20025;-73
2020/12/23 11:30:59;;;;;;;2.92;1.90;;;14.10;87.40;;;;;;4993579;28;20026;-72
2020/12/23 11:33:25;;;;;;;2.55;1.65;;;14.10;87.50;;;;;;5019038;28;20037;-76
2020/12/23 11:35:50;;;;;;;1.75;1.40;;;14.10;87.40;;;;;;5010021;28;20629;-73
2020/12/23 11:38:16;;;;;;;1.30;1.20;;;14.20;87.30;;;;;;5024311;28;20105;-73
2020/12/23 11:40:42;;;;;;;2.42;1.67;;;14.20;87.30;;;;;;5020385;28;20029;-72
2020/12/23 11:43:07;;;;;;;1.83;1.50;;;14.20;87.10;;;;;;5025376;28;20026;-71
2020/12/23 11:45:33;;;;;;;2.58;1.50;;;14.10;87.10;;;;;;5029517;28;20117;-72
2020/12/23 11:47:58;;;;;;;4.72;1.40;;;14.10;87.00;;;;;;5030295;28;20037;-70
2020/12/23 11:50:24;;;;;;;1.85;1.40;;;14.10;87.00;;;;;;5027429;28;20037;-73
2020/12/23 11:52:49;;;;;;;3.47;1.60;;;14.10;87.00;;;;;;5041542;28;20121;-72
2020/12/23 11:55:18;;;;;;;1.65;1.55;;;14.10;87.10;;;;;;5026739;28;20053;-71
2020/12/23 11:57:44;;;;;;;1.58;1.48;;;14.10;87.10;;;;;;5009693;28;20776;-72
2020/12/23 12:00:10;;;;;;;2.33;1.15;;;14.10;87.20;;;;;;5036280;28;20060;-72
2020/12/23 12:02:35;;;;;;;1.95;1.20;;;14.10;87.10;;;;;;5023654;28;20033;-73
2020/12/23 12:05:01;;;;;;;1.65;1.55;;;14.10;87.10;;;;;;5022973;28;20041;-73
2020/12/23 12:07:26;;;;;;;2.15;1.45;;;14.10;87.00;;;;;;5023104;28;20108;-71
2020/12/23 12:09:52;;;;;;;1.95;1.30;;;14.10;87.20;;;;;;5018134;28;20029;-71
2020/12/23 12:12:17;;;;;;;1.05;1.05;;;14.00;87.00;;;;;;5015785;28;20032;-69
2020/12/23 12:14:43;;;;;;;1.40;1.17;;;14.00;87.10;;;;;;5026725;28;20064;-71
2020/12/23 12:17:09;;;;;;;2.10;1.20;;;14.00;87.10;;;;;;4992599;28;20532;-71
2020/12/23 12:19:34;;;;;;;1.38;1.25;;;14.00;87.20;;;;;;5038278;28;20033;-72
2020/12/23 12:22:00;;;;;;;1.42;1.05;;;14.00;87.00;;;;;;5023398;28;20022;-72
2020/12/23 12:24:25;;;;;;;4.45;1.45;;;13.90;87.10;;;;;;5010705;28;20030;-72
2020/12/23 12:26:51;;;;;;;4.80;1.58;;;13.90;87.00;;;;;;5027543;28;20030;-72
2020/12/23 12:29:16;;;;;;;2.13;1.20;;;13.90;87.10;;;;;;5030528;28;20033;-72
2020/12/23 12:31:42;;;;;;;1.92;1.23;;;13.90;87.00;;;;;;5027736;28;20428;-73
2020/12/23 12:34:08;;;;;;;1.33;1.23;;;13.80;87.20;;;;;;5015488;28;20037;-71
2020/12/23 12:36:34;;;;;;;1.88;1.67;;;13.80;87.30;;;;;;5034997;28;20386;-73
2020/12/23 12:38:59;;;;;;;1.67;1.20;;;13.80;87.40;;;;;;5040980;28;20017;-72
2020/12/23 12:41:27;;;;;;;2.50;1.30;;;13.80;87.30;;;;;;5045221;28;20094;-71
2020/12/23 12:43:53;;;;;;;1.73;1.30;;;13.70;87.30;;;;;;5022813;28;20117;-72
2020/12/23 12:46:19;;;;;;;1.20;1.10;;;13.70;87.40;;;;;;5024076;28;20053;-71
2020/12/23 12:48:44;;;;;;;2.35;1.60;;;13.70;87.40;;;;;;5030124;28;20033;-71
2020/12/23 12:51:10;;;;;;;1.83;1.30;;;13.70;87.40;;;;;;5031419;28;20540;-70
2020/12/23 12:53:36;;;;;;;1.27;1.17;;;13.70;87.40;;;;;;5013866;28;20065;-72